Time;durP1;ratioP1;P1;durP2;ratioP2;P2;SDS_P1;SDS_P2;PMS_P1;PMS_P2;Temp;Humidity;BMP_temperature;BMP_pressure;BME280_temperature;BME280_humidity;BME280_pressure;Samples;Min_cycle;Max_cycle;Signal;HPM_P1;HPM_P2
2023/04/24 00:00:56;;;;;;;13.98;7.03;;;7.50;99.90;;;;;;5082162;28;20045;-58
2023/04/24 00:03:24;;;;;;;16.58;7.50;;;7.50;99.90;;;;;;5048407;28;20055;-57
2023/04/24 00:05:52;;;;;;;18.13;6.88;;;7.50;99.90;;;;;;5065390;28;20408;-58
2023/04/24 00:08:20;;;;;;;16.27;7.90;;;7.50;99.90;;;;;;5062621;28;20548;-58
2023/04/24 00:10:47;;;;;;;16.75;7.18;;;7.50;99.90;;;;;;5067063;28;20412;-59
2023/04/24 00:13:15;;;;;;;15.15;7.20;;;7.50;99.90;;;;;;5067091;28;20045;-57
2023/04/24 00:15:45;;;;;;;19.88;6.80;;;7.50;99.90;;;;;;5052451;28;20045;-58
2023/04/24 00:18:13;;;;;;;17.40;7.50;;;7.50;99.90;;;;;;5061952;28;20045;-57
2023/04/24 00:20:40;;;;;;;19.45;7.85;;;7.50;99.90;;;;;;5048634;28;20071;-58
2023/04/24 00:23:08;;;;;;;15.40;6.97;;;7.50;99.90;;;;;;5059852;28;20079;-58
2023/04/24 00:25:36;;;;;;;16.50;7.82;;;7.50;99.90;;;;;;5066880;28;20052;-58
2023/04/24 00:28:03;;;;;;;17.40;7.55;;;7.60;99.90;;;;;;5063707;28;20047;-57
2023/04/24 00:30:31;;;;;;;11.13;6.75;;;7.60;99.90;;;;;;5068411;28;20063;-58
2023/04/24 00:32:59;;;;;;;16.45;7.53;;;7.60;99.90;;;;;;5056066;28;20048;-58
2023/04/24 00:35:27;;;;;;;14.00;7.85;;;7.50;99.90;;;;;;5048398;28;20045;-58
2023/04/24 00:37:55;;;;;;;15.98;7.85;;;7.60;99.90;;;;;;5050243;28;20036;-59
2023/04/24 00:40:22;;;;;;;16.75;7.95;;;7.50;99.90;;;;;;5048002;28;20055;-58
2023/04/24 00:42:50;;;;;;;15.35;7.47;;;7.50;99.90;;;;;;5058852;28;20052;-58
2023/04/24 00:45:18;;;;;;;16.55;6.90;;;;;;;;;;5061898;28;20499;-58
2023/04/24 00:47:48;;;;;;;17.50;8.20;;;7.50;99.90;;;;;;5067446;28;20542;-57
2023/04/24 00:50:16;;;;;;;19.48;6.82;;;7.50;99.90;;;;;;5057144;28;20048;-58
2023/04/24 00:52:44;;;;;;;11.90;6.45;;;7.50;99.90;;;;;;5031574;28;20064;-57
2023/04/24 00:55:12;;;;;;;18.63;6.85;;;7.50;99.90;;;;;;5046388;28;20041;-57
2023/04/24 00:57:39;;;;;;;12.05;5.70;;;7.40;99.90;;;;;;5029913;28;20052;-57
2023/04/24 01:00:11;;;;;;;13.18;6.50;;;7.40;99.90;;;;;;5029448;28;20049;-58
2023/04/24 01:02:46;;;;;;;14.85;6.28;;;7.40;99.90;;;;;;5028175;28;20048;-58
2023/04/24 01:05:17;;;;;;;21.30;6.88;;;7.20;99.90;;;;;;5013486;28;20608;-58
2023/04/24 01:07:48;;;;;;;15.07;5.70;;;7.30;99.90;;;;;;5014483;28;20045;-58
2023/04/24 01:10:17;;;;;;;15.13;5.43;;;7.30;99.90;;;;;;5050818;28;20396;-56
2023/04/24 01:12:46;;;;;;;14.80;5.70;;;7.20;99.90;;;;;;5051700;28;20049;-58
2023/04/24 01:15:14;;;;;;;18.23;6.40;;;7.20;99.90;;;;;;5011364;28;20048;-57
2023/04/24 01:17:42;;;;;;;15.27;5.80;;;7.20;99.90;;;;;;5031747;28;20528;-58
2023/04/24 01:20:10;;;;;;;14.13;5.78;;;;;;;;;;5031953;28;20045;-58
2023/04/24 01:22:38;;;;;;;15.35;5.05;;;7.20;99.90;;;;;;5016460;28;20049;-58
2023/04/24 01:25:08;;;;;;;21.23;5.72;;;7.20;99.90;;;;;;5023780;28;20045;-57
2023/04/24 01:27:36;;;;;;;10.50;5.20;;;7.10;99.90;;;;;;5029921;28;20061;-59
2023/04/24 01:30:06;;;;;;;12.02;4.93;;;7.10;99.90;;;;;;5033977;28;20053;-57
2023/04/24 01:32:35;;;;;;;14.43;4.87;;;7.10;99.90;;;;;;5029719;28;20672;-56
2023/04/24 01:35:03;;;;;;;12.88;4.03;;;7.10;99.90;;;;;;5018526;28;20053;-57
2023/04/24 01:37:32;;;;;;;7.22;3.63;;;7.10;99.90;;;;;;5016642;28;20409;-58
2023/04/24 01:39:59;;;;;;;11.73;4.18;;;7.00;99.90;;;;;;5034341;28;20059;-57
2023/04/24 01:42:27;;;;;;;12.23;4.70;;;6.90;99.90;;;;;;5018257;28;20041;-58
2023/04/24 01:44:55;;;;;;;10.20;4.45;;;6.90;99.90;;;;;;5052014;28;20056;-58
2023/04/24 01:47:24;;;;;;;12.82;4.03;;;6.90;99.90;;;;;;5034305;28;20489;-57
2023/04/24 01:49:52;;;;;;;8.52;3.55;;;6.80;99.90;;;;;;5051212;28;20049;-56
2023/04/24 01:52:19;;;;;;;9.07;2.97;;;6.70;99.90;;;;;;5052102;28;20045;-56
2023/04/24 01:54:47;;;;;;;10.18;2.72;;;6.70;99.90;;;;;;5034128;28;20054;-57
2023/04/24 01:57:17;;;;;;;12.68;3.25;;;6.60;99.90;;;;;;5032086;28;20048;-57
2023/04/24 01:59:44;;;;;;;10.57;3.38;;;6.60;99.90;;;;;;5016029;28;20050;-57
2023/04/24 02:02:12;;;;;;;11.65;3.25;;;6.60;99.90;;;;;;5016436;28;20040;-58
2023/04/24 02:04:40;;;;;;;8.57;2.85;;;6.50;99.90;;;;;;5016669;28;20391;-58
2023/04/24 02:07:07;;;;;;;12.60;3.28;;;6.50;99.90;;;;;;5053046;28;20476;-58
2023/04/24 02:09:35;;;;;;;3.70;2.38;;;6.40;99.90;;;;;;5032826;28;20052;-58
2023/04/24 02:12:03;;;;;;;11.38;2.92;;;6.40;99.90;;;;;;5054008;28;20037;-56
2023/04/24 02:14:30;;;;;;;9.02;2.75;;;6.40;99.90;;;;;;5035336;28;20496;-57
2023/04/24 02:16:58;;;;;;;5.63;2.75;;;6.40;99.90;;;;;;5035977;28;20045;-57
2023/04/24 02:19:26;;;;;;;7.22;3.00;;;6.40;99.90;;;;;;5052186;28;20044;-58
2023/04/24 02:21:53;;;;;;;7.43;2.75;;;6.40;99.90;;;;;;5016673;28;20052;-57
2023/04/24 02:24:21;;;;;;;6.85;2.40;;;6.30;99.90;;;;;;5050902;28;20049;-58
2023/04/24 02:26:48;;;;;;;12.43;3.33;;;6.30;99.90;;;;;;5053763;28;20045;-57
2023/04/24 02:29:16;;;;;;;8.80;2.75;;;6.30;99.90;;;;;;5035922;28;20045;-56
2023/04/24 02:31:44;;;;;;;7.18;2.30;;;6.30;99.90;;;;;;5034832;28;20511;-58
2023/04/24 02:34:14;;;;;;;10.45;2.67;;;6.30;99.90;;;;;;5007859;28;20049;-56
2023/04/24 02:36:42;;;;;;;5.72;2.10;;;6.30;99.90;;;;;;5018297;28;20038;-58
2023/04/24 02:39:10;;;;;;;10.57;2.90;;;6.30;99.90;;;;;;5015963;28;20048;-57
2023/04/24 02:41:40;;;;;;;7.82;2.50;;;6.30;99.90;;;;;;5033539;28;20041;-57
2023/04/24 02:44:08;;;;;;;8.82;1.98;;;6.20;99.90;;;;;;5043629;28;20064;-57
2023/04/24 02:46:36;;;;;;;6.57;2.10;;;6.20;99.90;;;;;;5035339;28;20037;-57
2023/04/24 02:49:04;;;;;;;11.60;3.10;;;6.20;99.90;;;;;;5035395;28;20392;-57
2023/04/24 02:51:31;;;;;;;10.30;2.50;;;6.20;99.90;;;;;;5053063;28;20400;-57
2023/04/24 02:53:59;;;;;;;7.00;2.22;;;6.20;99.90;;;;;;5051972;28;20049;-57
2023/04/24 02:56:27;;;;;;;8.27;2.58;;;6.10;99.90;;;;;;5032249;28;20041;-58
2023/04/24 02:58:56;;;;;;;7.55;2.13;;;6.10;99.90;;;;;;5028527;28;20052;-58
2023/04/24 03:01:24;;;;;;;9.50;2.50;;;6.10;99.90;;;;;;5031931;28;20037;-58
2023/04/24 03:03:52;;;;;;;6.72;2.85;;;6.10;99.90;;;;;;5023806;28;20040;-57
2023/04/24 03:06:20;;;;;;;6.35;2.25;;;6.10;99.90;;;;;;5034584;28;20056;-57
2023/04/24 03:08:48;;;;;;;6.28;2.75;;;6.10;99.90;;;;;;5042417;28;20041;-57
2023/04/24 03:11:15;;;;;;;9.55;2.85;;;6.10;99.90;;;;;;5032934;28;20045;-57
2023/04/24 03:13:43;;;;;;;8.63;2.40;;;6.10;99.90;;;;;;5044056;28;20045;-57
2023/04/24 03:16:11;;;;;;;8.95;2.20;;;6.10;99.90;;;;;;5037942;28;20052;-57
2023/04/24 03:18:40;;;;;;;8.02;2.42;;;6.10;99.90;;;;;;5052496;28;20481;-57
2023/04/24 03:21:09;;;;;;;8.60;3.08;;;6.10;99.90;;;;;;5033630;28;20056;-57
2023/04/24 03:23:36;;;;;;;7.25;2.97;;;6.10;99.90;;;;;;5018130;28;20064;-57
2023/04/24 03:26:05;;;;;;;9.73;3.13;;;6.00;99.90;;;;;;5033788;28;20056;-59
2023/04/24 03:28:34;;;;;;;6.03;2.17;;;6.00;99.90;;;;;;5034713;28;20037;-57
2023/04/24 03:31:04;;;;;;;10.75;2.50;;;6.00;99.90;;;;;;5034700;28;20041;-58
2023/04/24 03:33:35;;;;;;;10.02;2.30;;;6.00;99.90;;;;;;5027933;28;20067;-58
2023/04/24 03:36:04;;;;;;;8.60;2.90;;;6.00;99.90;;;;;;5014804;28;20396;-57
2023/04/24 03:38:39;;;;;;;7.78;2.03;;;6.00;99.90;;;;;;5014769;28;20041;-59
2023/04/24 03:41:19;;;;;;;7.15;2.13;;;6.00;99.90;;;;;;5014759;28;20050;-58
2023/04/24 03:43:51;;;;;;;6.85;2.10;;;6.00;99.90;;;;;;5032177;28;20468;-58
2023/04/24 03:46:18;;;;;;;14.05;3.10;;;6.00;99.90;;;;;;5049114;28;20033;-57
2023/04/24 03:48:53;;;;;;;7.57;1.83;;;6.00;99.90;;;;;;5034498;28;20052;-59
2023/04/24 03:51:27;;;;;;;9.45;1.75;;;6.00;99.90;;;;;;5054112;28;20048;-59
2023/04/24 03:54:00;;;;;;;10.05;2.58;;;6.00;99.90;;;;;;5067324;28;20389;-59
2023/04/24 03:56:30;;;;;;;7.80;1.88;;;6.00;99.90;;;;;;5059606;28;20048;-57
2023/04/24 03:58:58;;;;;;;3.10;1.83;;;6.00;99.90;;;;;;5072183;28;20051;-58
2023/04/24 04:01:25;;;;;;;7.32;1.83;;;5.90;99.90;;;;;;5066734;28;20048;-58
2023/04/24 04:04:04;;;;;;;7.18;1.60;;;5.90;99.90;;;;;;5061565;28;20041;-57
2023/04/24 04:06:32;;;;;;;5.68;1.95;;;5.90;99.90;;;;;;5050978;28;20049;-58
2023/04/24 04:09:01;;;;;;;4.38;1.38;;;5.90;99.90;;;;;;5056593;28;20387;-58
2023/04/24 04:11:30;;;;;;;3.55;1.38;;;5.90;99.90;;;;;;5070753;28;20537;-58
2023/04/24 04:13:58;;;;;;;5.05;1.98;;;5.90;99.90;;;;;;5063325;28;20045;-58
2023/04/24 04:16:25;;;;;;;5.10;1.88;;;5.90;99.90;;;;;;5058287;28;20051;-58
2023/04/24 04:18:59;;;;;;;6.97;1.77;;;5.90;99.90;;;;;;5054766;28;20047;-58
2023/04/24 04:21:26;;;;;;;6.88;2.38;;;5.90;99.90;;;;;;5069547;28;20044;-59
2023/04/24 04:24:02;;;;;;;6.90;2.15;;;5.90;99.90;;;;;;5080537;28;20052;-58
2023/04/24 04:26:35;;;;;;;5.25;1.98;;;5.90;99.90;;;;;;5070408;28;20070;-58
2023/04/24 04:29:06;;;;;;;7.07;2.28;;;5.90;99.90;;;;;;5070462;28;20036;-58
2023/04/24 04:31:38;;;;;;;10.52;1.85;;;5.90;99.90;;;;;;5039136;28;20056;-58
2023/04/24 04:34:13;;;;;;;13.25;2.47;;;5.90;99.90;;;;;;5050109;28;20400;-58
2023/04/24 04:36:43;;;;;;;9.27;1.92;;;6.00;99.90;;;;;;5051551;28;20055;-57
2023/04/24 04:39:28;;;;;;;10.80;2.22;;;5.90;99.90;;;;;;5050198;28;20060;-58
2023/04/24 04:42:23;;;;;;;4.57;1.60;;;5.90;99.90;;;;;;5066262;28;20063;-58
2023/04/24 04:44:51;;;;;;;4.10;1.65;;;5.90;99.90;;;;;;5054897;28;20040;-57
2023/04/24 04:47:24;;;;;;;3.72;1.80;;;5.90;99.90;;;;;;5060701;28;20044;-59
2023/04/24 04:49:54;;;;;;;5.20;1.58;;;5.90;99.90;;;;;;5046821;28;20420;-59
2023/04/24 04:52:27;;;;;;;6.72;2.70;;;5.80;99.90;;;;;;5046250;28;20057;-58
2023/04/24 04:55:05;;;;;;;5.55;2.00;;;5.80;99.90;;;;;;5052222;28;20041;-58
2023/04/24 04:57:52;;;;;;;10.65;2.33;;;5.90;99.90;;;;;;5067460;28;20057;-59
2023/04/24 05:00:25;;;;;;;7.10;2.40;;;5.80;99.90;;;;;;5066534;28;20059;-58
2023/04/24 05:02:53;;;;;;;9.43;2.75;;;5.80;99.90;;;;;;5057076;28;20048;-59
2023/04/24 05:05:25;;;;;;;6.50;2.13;;;5.80;99.90;;;;;;5056040;28;20045;-59
2023/04/24 05:07:53;;;;;;;5.35;1.90;;;5.90;99.90;;;;;;5046478;28;20037;-59
2023/04/24 05:10:21;;;;;;;8.13;3.13;;;5.80;99.90;;;;;;5062904;28;20051;-58
2023/04/24 05:12:52;;;;;;;8.63;2.92;;;5.80;99.90;;;;;;5066429;28;20048;-59
2023/04/24 05:15:20;;;;;;;8.90;2.17;;;5.80;99.90;;;;;;5058098;28;20044;-60
2023/04/24 05:17:48;;;;;;;5.47;2.25;;;5.90;99.90;;;;;;5049233;28;20045;-59
2023/04/24 05:20:16;;;;;;;3.30;1.77;;;5.80;99.90;;;;;;5047507;28;20048;-58
2023/04/24 05:22:46;;;;;;;6.35;2.05;;;5.90;99.90;;;;;;5046026;28;20045;-59
2023/04/24 05:25:15;;;;;;;4.78;2.13;;;5.80;99.90;;;;;;5063899;28;20052;-59
2023/04/24 05:27:56;;;;;;;7.38;1.85;;;5.90;99.90;;;;;;5053899;28;20048;-58
2023/04/24 05:30:24;;;;;;;5.55;2.72;;;5.90;99.90;;;;;;5044577;28;20053;-58
2023/04/24 05:32:52;;;;;;;7.43;2.72;;;5.90;99.90;;;;;;5051360;28;20059;-58
2023/04/24 05:35:20;;;;;;;4.45;2.20;;;5.90;99.90;;;;;;5044595;28;20232;-58
2023/04/24 05:37:48;;;;;;;8.00;2.72;;;6.10;99.90;;;;;;5051236;28;20048;-58
2023/04/24 05:40:18;;;;;;;7.35;2.33;;;5.90;99.90;;;;;;5063712;28;20045;-58
2023/04/24 05:42:46;;;;;;;6.15;2.80;;;5.90;99.90;;;;;;5067008;28;20330;-57
2023/04/24 05:45:16;;;;;;;3.45;2.00;;;6.00;99.90;;;;;;5050012;28;20056;-58
2023/04/24 05:47:47;;;;;;;7.65;2.30;;;5.90;99.90;;;;;;5052996;28;20045;-58
2023/04/24 05:50:15;;;;;;;9.77;2.83;;;5.90;99.90;;;;;;5042002;28;20056;-58
2023/04/24 05:52:43;;;;;;;7.13;2.83;;;6.00;99.90;;;;;;5028586;28;20127;-59
2023/04/24 05:55:25;;;;;;;6.18;2.17;;;6.00;99.90;;;;;;5020880;28;20033;-59
2023/04/24 05:57:53;;;;;;;6.70;2.78;;;6.00;99.90;;;;;;5024169;28;20041;-60
2023/04/24 06:00:21;;;;;;;8.93;3.55;;;6.10;99.90;;;;;;5003780;28;20049;-59
2023/04/24 06:03:00;;;;;;;4.45;2.08;;;6.10;99.90;;;;;;5017713;28;20049;-60
2023/04/24 06:05:29;;;;;;;13.05;4.22;;;6.20;99.90;;;;;;5031601;28;20057;-60
2023/04/24 06:07:57;;;;;;;5.00;2.23;;;6.10;99.90;;;;;;5033112;28;20038;-58
2023/04/24 06:10:29;;;;;;;9.05;2.78;;;6.20;99.90;;;;;;5013948;28;20301;-58
2023/04/24 06:13:00;;;;;;;9.02;2.60;;;6.20;99.90;;;;;;5032336;28;20500;-59
2023/04/24 06:15:30;;;;;;;8.10;3.13;;;5.30;99.90;;;;;;5013682;28;20056;-58
2023/04/24 06:18:04;;;;;;;5.38;2.03;;;6.30;99.90;;;;;;5023626;28;20053;-57
2023/04/24 06:20:32;;;;;;;5.72;2.42;;;6.40;99.90;;;;;;5013636;28;20045;-56
2023/04/24 06:23:27;;;;;;;8.00;1.95;;;6.40;99.90;;;;;;5014938;28;20049;-58
2023/04/24 06:25:54;;;;;;;5.28;1.67;;;6.40;99.90;;;;;;5037437;28;20045;-58
2023/04/24 06:28:22;;;;;;;9.25;2.63;;;6.40;99.90;;;;;;5026354;28;20041;-58
2023/04/24 06:30:52;;;;;;;6.13;2.30;;;6.50;99.90;;;;;;5027835;28;20041;-57
2023/04/24 06:33:19;;;;;;;8.23;2.55;;;6.50;99.90;;;;;;5012813;28;20492;-59
2023/04/24 06:35:50;;;;;;;5.63;2.45;;;6.60;99.90;;;;;;5012583;28;20034;-58
2023/04/24 06:38:18;;;;;;;4.35;2.35;;;6.60;99.90;;;;;;5025310;28;20064;-59
2023/04/24 06:40:45;;;;;;;5.97;3.20;;;6.60;99.90;;;;;;5028356;28;20049;-58
2023/04/24 06:43:14;;;;;;;7.55;2.10;;;6.70;99.90;;;;;;5040968;28;20049;-59
2023/04/24 06:45:43;;;;;;;6.60;2.03;;;6.70;99.90;;;;;;5031664;28;20052;-59
2023/04/24 06:48:11;;;;;;;8.70;2.30;;;6.80;99.90;;;;;;5037572;28;20052;-58
2023/04/24 06:50:39;;;;;;;7.40;2.10;;;6.80;99.90;;;;;;5029456;28;20505;-59
2023/04/24 06:53:07;;;;;;;5.18;1.88;;;6.70;99.90;;;;;;5028536;28;20064;-58
2023/04/24 06:55:35;;;;;;;4.53;1.80;;;6.80;99.90;;;;;;5031856;28;20048;-58
2023/04/24 06:58:03;;;;;;;13.65;2.17;;;6.80;99.90;;;;;;5030278;28;20029;-57
2023/04/24 07:00:31;;;;;;;13.73;2.85;;;6.80;99.90;;;;;;5042003;28;20052;-56
2023/04/24 07:02:59;;;;;;;9.60;2.05;;;6.80;99.90;;;;;;5045496;28;20044;-57
2023/04/24 07:05:28;;;;;;;7.47;1.80;;;6.90;99.90;;;;;;5046288;28;20664;-56
2023/04/24 07:07:58;;;;;;;8.65;2.05;;;6.90;99.90;;;;;;5037380;28;20038;-57
2023/04/24 07:10:28;;;;;;;;;;;7.00;99.90;;;;;;5045700;28;20052;-57
2023/04/24 07:12:56;;;;;;;3.63;1.50;;;7.10;99.90;;;;;;5032480;28;19928;-57
2023/04/24 07:15:24;;;;;;;8.57;1.33;;;7.10;99.90;;;;;;5026060;28;20473;-58
2023/04/24 07:17:52;;;;;;;7.25;1.45;;;7.10;99.90;;;;;;5035077;28;20049;-57
2023/04/24 07:20:19;;;;;;;6.30;1.98;;;7.20;99.90;;;;;;5030404;28;20053;-57
2023/04/24 07:22:48;;;;;;;6.53;2.35;;;7.20;99.90;;;;;;5032507;28;20041;-57
2023/04/24 07:25:18;;;;;;;5.68;1.50;;;7.20;99.90;;;;;;5041486;28;20855;-58
2023/04/24 07:27:45;;;;;;;9.55;1.60;;;7.30;99.90;;;;;;5042326;28;20059;-58
2023/04/24 07:30:13;;;;;;;6.00;1.48;;;7.30;99.90;;;;;;5034398;28;20040;-57
2023/04/24 07:32:41;;;;;;;3.88;1.35;;;7.30;99.90;;;;;;5032068;28;20053;-57
2023/04/24 07:35:09;;;;;;;5.80;1.35;;;7.40;99.90;;;;;;5030266;28;20041;-57
2023/04/24 07:37:37;;;;;;;4.88;1.50;;;7.50;99.90;;;;;;5047456;28;20045;-58
2023/04/24 07:40:05;;;;;;;8.20;2.05;;;7.50;99.90;;;;;;5048764;28;20041;-58
2023/04/24 07:42:34;;;;;;;6.65;1.50;;;7.60;99.90;;;;;;5039477;28;20049;-58
2023/04/24 07:45:02;;;;;;;5.83;1.70;;;7.60;99.90;;;;;;5048927;28;20044;-57
2023/04/24 07:47:31;;;;;;;7.82;1.80;;;7.70;99.90;;;;;;5044487;28;20206;-58
2023/04/24 07:49:59;;;;;;;6.97;1.50;;;7.80;99.90;;;;;;5043973;28;20048;-57
2023/04/24 07:52:27;;;;;;;5.32;1.48;;;7.80;99.90;;;;;;5033127;28;20056;-58
2023/04/24 07:54:58;;;;;;;13.85;1.70;;;7.80;99.90;;;;;;5045785;28;20053;-58
2023/04/24 07:57:26;;;;;;;7.28;2.33;;;7.80;99.90;;;;;;5031083;28;20056;-58
2023/04/24 07:59:55;;;;;;;6.57;2.00;;;7.80;99.90;;;;;;5048567;28;20412;-58
2023/04/24 08:02:26;;;;;;;9.23;2.40;;;7.90;99.90;;;;;;5047365;28;20048;-58
2023/04/24 08:04:55;;;;;;;7.53;1.40;;;7.90;99.90;;;;;;5043047;28;20049;-58
2023/04/24 08:07:24;;;;;;;10.23;1.65;;;8.00;99.90;;;;;;5044374;28;20053;-58
2023/04/24 08:09:52;;;;;;;7.35;1.55;;;8.10;99.90;;;;;;5029627;28;20065;-60
2023/04/24 08:12:19;;;;;;;9.50;1.75;;;8.20;99.90;;;;;;5010283;28;20053;-57
2023/04/24 08:14:47;;;;;;;7.88;1.50;;;8.40;99.90;;;;;;5036931;28;20044;-57
2023/04/24 08:17:16;;;;;;;8.45;1.73;;;8.40;99.90;;;;;;5039592;28;20052;-58
2023/04/24 08:19:51;;;;;;;9.30;1.50;;;8.50;99.90;;;;;;5028690;28;20056;-59
2023/04/24 08:22:18;;;;;;;8.18;1.48;;;8.50;99.90;;;;;;5037243;28;20049;-57
2023/04/24 08:24:46;;;;;;;5.85;1.38;;;8.60;99.90;;;;;;5047986;28;20041;-58
2023/04/24 08:27:13;;;;;;;7.82;1.52;;;8.60;99.90;;;;;;5024633;28;20129;-57
2023/04/24 08:29:44;;;;;;;11.48;2.42;;;8.70;99.90;;;;;;5048264;28;20041;-58
2023/04/24 08:32:12;;;;;;;12.10;2.10;;;8.70;99.90;;;;;;5047897;28;20044;-58
2023/04/24 08:34:40;;;;;;;9.88;2.03;;;8.70;99.90;;;;;;5047028;28;20041;-57
2023/04/24 08:37:08;;;;;;;8.68;1.30;;;8.70;99.90;;;;;;5046059;28;20052;-60
2023/04/24 08:39:36;;;;;;;6.63;1.80;;;8.70;99.90;;;;;;5028081;28;20052;-60
2023/04/24 08:42:07;;;;;;;7.28;1.73;;;8.80;99.90;;;;;;5028360;28;20054;-58
2023/04/24 08:44:36;;;;;;;5.68;1.60;;;8.80;99.90;;;;;;5048023;28;20055;-59
2023/04/24 08:47:05;;;;;;;6.28;1.52;;;8.80;99.90;;;;;;5047525;28;20064;-57
2023/04/24 08:49:33;;;;;;;8.07;1.97;;;8.90;99.90;;;;;;5028881;28;20052;-58
2023/04/24 08:52:02;;;;;;;7.20;1.52;;;8.90;99.90;;;;;;5027680;28;20042;-58
2023/04/24 08:54:31;;;;;;;10.35;1.38;;;9.00;99.90;;;;;;5028089;28;20433;-59
2023/04/24 08:57:01;;;;;;;7.23;1.80;;;9.00;99.90;;;;;;5045514;28;20055;-58
2023/04/24 08:59:30;;;;;;;6.32;1.75;;;9.00;99.90;;;;;;5047470;28;20045;-58
2023/04/24 09:01:58;;;;;;;9.52;1.85;;;9.00;99.90;;;;;;5046841;28;20048;-57
2023/04/24 09:04:27;;;;;;;6.65;1.40;;;9.10;99.90;;;;;;5028264;28;20567;-58
2023/04/24 09:06:57;;;;;;;10.93;1.95;;;9.10;99.90;;;;;;5027888;28;20053;-58
2023/04/24 09:09:25;;;;;;;10.35;1.75;;;9.20;99.90;;;;;;5045010;28;20417;-58
2023/04/24 09:11:55;;;;;;;9.13;1.83;;;9.30;99.90;;;;;;5044767;28;20041;-61
2023/04/24 09:14:24;;;;;;;6.05;1.92;;;9.40;99.90;;;;;;5030977;28;20053;-60
2023/04/24 09:16:51;;;;;;;8.23;1.75;;;9.40;99.90;;;;;;5019157;28;20045;-59
2023/04/24 09:19:21;;;;;;;9.70;1.75;;;9.50;99.90;;;;;;5046292;28;20060;-58
2023/04/24 09:21:49;;;;;;;5.85;1.60;;;9.50;99.90;;;;;;5029708;28;20099;-59
2023/04/24 09:24:24;;;;;;;9.40;2.42;;;9.60;99.90;;;;;;5028802;28;20049;-59
2023/04/24 09:26:58;;;;;;;11.38;2.15;;;9.70;99.90;;;;;;5041941;28;20053;-59
2023/04/24 09:29:26;;;;;;;9.20;2.30;;;9.70;99.90;;;;;;5028705;28;20061;-59
2023/04/24 09:31:54;;;;;;;6.30;1.63;;;9.80;99.90;;;;;;5028579;28;20045;-59
2023/04/24 09:34:23;;;;;;;4.57;1.58;;;9.90;99.90;;;;;;5049507;28;20509;-58
2023/04/24 09:36:52;;;;;;;8.18;1.70;;;10.00;99.90;;;;;;5031343;28;20485;-58
2023/04/24 09:39:20;;;;;;;7.10;1.88;;;10.00;99.90;;;;;;5048019;28;20045;-59
2023/04/24 09:41:49;;;;;;;8.70;1.73;;;10.10;99.90;;;;;;5030855;28;20401;-57
2023/04/24 09:44:22;;;;;;;7.72;1.42;;;10.30;99.90;;;;;;5047830;28;20480;-58
2023/04/24 09:46:51;;;;;;;8.27;1.40;;;10.30;99.90;;;;;;5042601;28;20052;-58
2023/04/24 09:49:33;;;;;;;9.10;1.67;;;10.40;99.90;;;;;;5032081;28;20535;-59
2023/04/24 09:52:08;;;;;;;7.68;1.50;;;10.50;99.90;;;;;;5030747;28;20053;-59
2023/04/24 09:54:37;;;;;;;10.57;1.48;;;10.60;99.90;;;;;;5030813;28;20048;-61
2023/04/24 09:57:07;;;;;;;11.85;1.52;;;10.70;99.90;;;;;;5034224;28;20056;-60
2023/04/24 09:59:42;;;;;;;9.50;1.60;;;10.80;99.90;;;;;;5016610;28;20061;-59
2023/04/24 10:02:22;;;;;;;7.38;2.17;;;10.90;99.90;;;;;;5030929;28;20041;-58
2023/04/24 10:04:58;;;;;;;9.00;2.10;;;11.10;99.90;;;;;;5036945;28;20048;-59
2023/04/24 10:07:27;;;;;;;10.68;2.03;;;11.20;99.90;;;;;;5033527;28;20049;-60
2023/04/24 10:09:55;;;;;;;7.05;1.58;;;11.40;99.90;;;;;;5032610;28;20416;-57
2023/04/24 10:12:24;;;;;;;5.32;1.40;;;11.50;99.90;;;;;;5040552;28;20048;-59
2023/04/24 10:14:53;;;;;;;10.90;1.85;;;11.60;99.90;;;;;;5049789;28;20048;-58
2023/04/24 10:17:21;;;;;;;5.68;1.70;;;11.80;99.90;;;;;;5030464;28;20064;-58
2023/04/24 10:19:49;;;;;;;6.60;1.63;;;11.80;99.90;;;;;;5013836;28;20491;-58
2023/04/24 10:22:18;;;;;;;9.07;2.00;;;12.00;99.90;;;;;;5035231;28;20462;-57
2023/04/24 10:24:49;;;;;;;7.90;1.60;;;12.10;99.90;;;;;;5045139;28;20046;-57
2023/04/24 10:27:17;;;;;;;5.65;1.88;;;12.10;99.90;;;;;;5048421;28;20056;-58
2023/04/24 10:29:47;;;;;;;5.38;1.75;;;12.10;99.90;;;;;;5050731;28;20048;-59
2023/04/24 10:32:16;;;;;;;6.55;1.35;;;;;;;;;;5024433;28;20546;-59
2023/04/24 10:34:44;;;;;;;12.57;1.77;;;11.90;99.90;;;;;;5031162;28;20489;-56
2023/04/24 10:37:15;;;;;;;5.32;1.60;;;11.90;99.90;;;;;;5030232;28;20052;-58
2023/04/24 10:39:47;;;;;;;8.60;1.95;;;11.90;99.90;;;;;;5036683;28;20044;-58
2023/04/24 10:42:16;;;;;;;7.93;1.90;;;11.80;99.90;;;;;;5049951;28;20045;-58
2023/04/24 10:44:46;;;;;;;9.00;1.63;;;11.80;99.90;;;;;;5050060;28;20393;-59
2023/04/24 10:47:14;;;;;;;9.15;2.00;;;11.70;99.90;;;;;;5049710;28;20052;-59
2023/04/24 10:49:43;;;;;;;9.75;2.00;;;11.60;99.90;;;;;;5048864;28;20320;-58
2023/04/24 10:52:16;;;;;;;4.45;1.83;;;11.70;99.90;;;;;;5046193;28;20052;-58
2023/04/24 10:54:46;;;;;;;3.72;1.40;;;12.00;99.90;;;;;;5032267;28;20060;-60
2023/04/24 10:57:20;;;;;;;4.95;1.88;;;11.90;99.90;;;;;;5049603;28;20049;-61
2023/04/24 11:00:09;;;;;;;5.43;1.60;;;12.20;99.90;;;;;;5031921;28;20045;-58
2023/04/24 11:02:38;;;;;;;7.10;1.55;;;12.20;99.90;;;;;;5048620;28;20535;-58
2023/04/24 11:05:07;;;;;;;6.05;1.42;;;12.50;99.90;;;;;;5048360;28;20056;-58
2023/04/24 11:08:13;;;;;;;7.43;1.48;;;12.90;99.90;;;;;;5043256;28;20433;-61
2023/04/24 11:10:53;;;;;;;4.05;1.58;;;13.30;99.90;;;;;;5031725;28;20053;-58
2023/04/24 11:13:22;;;;;;;6.28;1.63;;;13.50;99.90;;;;;;5035280;28;20045;-58
2023/04/24 11:16:35;;;;;;;8.57;2.13;;;13.50;99.90;;;;;;5029518;28;20053;-60
2023/04/24 11:19:03;;;;;;;7.95;1.77;;;13.20;99.90;;;;;;5022989;28;20492;-60
2023/04/24 11:22:02;;;;;;;12.35;1.65;;;13.20;99.90;;;;;;5036026;28;20457;-58
2023/04/24 11:24:32;;;;;;;5.20;1.13;;;13.10;99.90;;;;;;5029545;28;20045;-58
2023/04/24 11:27:03;;;;;;;5.10;1.27;;;13.10;99.90;;;;;;5046707;28;20052;-58
2023/04/24 11:29:54;;;;;;;10.13;1.58;;;13.10;99.90;;;;;;5029232;28;20488;-58
2023/04/24 11:32:27;;;;;;;6.70;1.60;;;13.00;99.90;;;;;;5036737;28;20037;-58
2023/04/24 11:35:03;;;;;;;4.70;1.33;;;13.00;99.90;;;;;;5049063;28;20060;-58
2023/04/24 11:37:39;;;;;;;10.23;1.58;;;13.00;99.90;;;;;;5045576;28;20045;-59
2023/04/24 11:40:10;;;;;;;7.07;1.30;;;12.80;99.90;;;;;;5028935;28;20060;-59
2023/04/24 11:42:41;;;;;;;8.50;1.42;;;12.70;99.90;;;;;;5033409;28;20057;-58
2023/04/24 11:45:15;;;;;;;3.13;1.75;;;12.50;99.90;;;;;;5029221;28;20053;-58
2023/04/24 11:47:45;;;;;;;8.15;1.30;;;12.40;99.90;;;;;;5017952;28;20041;-59
2023/04/24 11:50:14;;;;;;;5.82;1.58;;;12.30;99.90;;;;;;5048208;28;20045;-57
2023/04/24 11:52:45;;;;;;;10.93;1.42;;;12.10;99.90;;;;;;5033900;28;20511;-57
2023/04/24 11:55:15;;;;;;;7.13;1.63;;;12.10;99.90;;;;;;5044759;28;20052;-58
2023/04/24 11:57:44;;;;;;;9.73;2.15;;;12.10;99.90;;;;;;5032244;28;20068;-57
2023/04/24 12:00:20;;;;;;;3.80;1.05;;;12.00;99.90;;;;;;5046939;28;20068;-58
2023/04/24 12:02:49;;;;;;;7.35;1.98;;;12.10;99.90;;;;;;5048372;28;20044;-57
2023/04/24 12:05:26;;;;;;;8.48;1.50;;;12.10;99.90;;;;;;5048735;28;20060;-57
2023/04/24 12:07:54;;;;;;;9.00;1.60;;;12.20;99.90;;;;;;5028545;28;20339;-59
2023/04/24 12:10:24;;;;;;;7.10;1.67;;;12.20;99.90;;;;;;5028231;28;20056;-58
2023/04/24 12:12:53;;;;;;;6.57;1.63;;;12.30;99.90;;;;;;5043074;28;20041;-58
2023/04/24 12:15:21;;;;;;;9.43;1.75;;;12.30;99.90;;;;;;5030361;28;20443;-58
2023/04/24 12:17:52;;;;;;;6.63;1.65;;;12.30;99.90;;;;;;5046816;28;20064;-57
2023/04/24 12:20:33;;;;;;;9.07;2.22;;;12.40;99.90;;;;;;5048317;28;20056;-58
2023/04/24 12:23:01;;;;;;;5.35;1.77;;;12.30;99.90;;;;;;5035704;28;20048;-58
2023/04/24 12:25:34;;;;;;;6.63;1.30;;;12.30;99.90;;;;;;5042709;28;20078;-58
2023/04/24 12:28:05;;;;;;;5.40;1.40;;;12.40;99.90;;;;;;5039045;28;20044;-58
2023/04/24 12:30:48;;;;;;;6.57;2.13;;;12.40;99.90;;;;;;5047089;28;20049;-59
2023/04/24 12:33:20;;;;;;;8.52;1.63;;;12.40;99.90;;;;;;5043354;28;20044;-61
2023/04/24 12:35:51;;;;;;;7.22;1.80;;;12.30;99.90;;;;;;5015993;28;20405;-58
2023/04/24 12:38:23;;;;;;;12.27;1.88;;;12.30;99.90;;;;;;5027796;28;20390;-58
2023/04/24 12:41:08;;;;;;;8.52;2.72;;;12.20;99.90;;;;;;5028445;28;20061;-60
2023/04/24 12:43:36;;;;;;;7.72;1.48;;;12.10;99.90;;;;;;5041939;28;20048;-59
2023/04/24 12:46:05;;;;;;;8.10;1.98;;;12.00;99.90;;;;;;5029910;28;20041;-58
2023/04/24 12:48:32;;;;;;;5.07;1.70;;;12.00;99.90;;;;;;5036167;28;20061;-58
2023/04/24 12:51:01;;;;;;;4.45;1.65;;;11.90;99.90;;;;;;5028273;28;20056;-60
2023/04/24 12:53:30;;;;;;;6.88;2.17;;;11.80;99.90;;;;;;5030847;28;20053;-58
2023/04/24 12:55:58;;;;;;;7.88;1.92;;;11.80;99.90;;;;;;5046500;28;20045;-59
2023/04/24 12:58:26;;;;;;;7.70;1.73;;;11.80;99.90;;;;;;5035146;28;20053;-58
2023/04/24 13:00:54;;;;;;;16.58;2.45;;;11.70;99.90;;;;;;5032200;28;20041;-58
2023/04/24 13:03:22;;;;;;;8.25;2.58;;;11.60;99.90;;;;;;5041989;28;20049;-58
2023/04/24 13:05:50;;;;;;;17.33;2.42;;;11.60;99.90;;;;;;5033745;28;20049;-60
2023/04/24 13:08:18;;;;;;;7.53;2.10;;;11.60;99.90;;;;;;5031700;28;20389;-58